Flight Track Log - Related Links

Times and Time Zones

All times are in EDT time to prevent confusion due to time zone crossing. See the N53NW flight status page for this flight to view local times or setup timezone preferences in your user account.

Time Position Orientation Groundspeed Altitude Reporting Facility
EDT Latitude Longitude Course Direction KTS MPH feet Rate Location/Type
Mon 09:25:00 AM 41.1000 -73.7667 270° West 220 253 3,300  Level New York TRACON
Mon 09:26:00 AM 41.1167 -73.8500 285° West 252 290 6,200 2,350 Climbing New York TRACON
Mon 09:27:00 AM 41.1167 -73.9500 270° West 259 298 8,000 900 Climbing New York TRACON
Mon 09:28:00 AM 41.1000 -74.0333 255° West 254 292 8,000  Level New York TRACON
Mon 09:29:00 AM 41.1000 -74.1333 270° West 255 293 8,000  Level New York TRACON
Mon 09:30:00 AM 41.0670 -74.1642 270° West  Level FlightAware Approximate
Mon 09:30:00 AM 41.1000 -74.2333 270° West 255 293 8,000  Level New York TRACON
Mon 09:31:00 AM 41.0833 -74.3167 255° West 256 295 8,000  Level New York TRACON
Mon 09:32:00 AM 41.0833 -74.4167 270° West 256 295 8,000  Level New York TRACON
Mon 09:33:01 AM 41.0667 -74.5000 255° West 255 293 8,000  Level New York TRACON
Mon 09:34:01 AM 41.0167 -74.5667 225° Southwest 268 308 8,000  Level New York TRACON
Mon 09:35:01 AM 40.9500 -74.5833 191° South 261 300 8,000  Level New York TRACON
Mon 09:36:06 AM 40.8667 -74.6167 197° South 257 296 8,000  Level New York TRACON
Mon 09:37:06 AM 40.8000 -74.6500 201° Southwest 258 297 8,000  Level New York TRACON
Mon 09:38:06 AM 40.7333 -74.6833 201° Southwest 257 296 8,000 -450 Level New York TRACON
Mon 09:39:06 AM 40.6667 -74.7000 191° South 259 298 7,100 -1,050 Descending New York TRACON
Mon 09:40:06 AM 40.6000 -74.7333 201° Southwest 260 299 5,900 -1,053 Descending New York TRACON
Mon 09:41:57 AM 40.4667 -74.8000 201° Southwest 255 293 4,100 -667 Descending Philadelphia TRACON
Mon 09:42:57 AM 40.4167 -74.8333 207° Southwest 247 284 4,000 -450 Descending Philadelphia TRACON
Mon 09:43:57 AM 40.3500 -74.8667 201° Southwest 236 272 3,200 -526 Descending Philadelphia TRACON
Mon 09:44:51 AM 40.3000 -74.8833 194° South 216 249 3,000 -143 Descending Philadelphia TRACON
Mon 09:46:03 AM 40.2167 -74.9167 197° South 242 278 2,900 -429 Descending Philadelphia TRACON
Mon 09:46:57 AM 40.1667 -74.9333 194° South 219 252 2,100 -950 Descending Philadelphia TRACON
Mon 09:48:03 AM 40.1167 -74.9500 194° South 135 155 1,000 -810 Descending Philadelphia TRACON
Mon 09:49:03 AM 40.1000 -74.9833 237° Southwest 96 110 400 -600 Descending Philadelphia TRACON
Mon 09:51:00 AM 40.0819 -75.0106 197° South  Level Estimated

Login

Don't have an account? Register now (free) for customized features, flight alerts, and more!